createdAt,value
2022-11-04T00:00:06.284Z,30.80
2022-11-04T00:02:58.071Z,25.50
2022-11-04T00:05:30.279Z,34.70
2022-11-04T00:08:19.784Z,18.80
2022-11-04T00:11:12.708Z,25.80
2022-11-04T00:13:44.794Z,27.40
2022-11-04T00:16:35.094Z,29.00
2022-11-04T00:19:07.091Z,30.00
2022-11-04T00:21:56.277Z,27.20
2022-11-04T00:24:44.575Z,26.70
2022-11-04T00:27:36.170Z,33.30
2022-11-04T00:30:11.265Z,26.80
2022-11-04T00:33:00.601Z,28.90
2022-11-04T00:35:32.813Z,31.30
2022-11-04T00:38:04.532Z,27.70
2022-11-04T00:40:36.308Z,21.70
2022-11-04T00:43:08.592Z,34.00
2022-11-04T00:45:41.080Z,33.40
2022-11-04T00:48:12.759Z,25.70
2022-11-04T00:50:44.573Z,31.00
2022-11-04T00:53:16.542Z,27.10
2022-11-04T00:55:48.185Z,30.40
2022-11-04T00:58:19.836Z,27.50
2022-11-04T01:00:51.494Z,27.60
2022-11-04T01:03:23.196Z,26.90
2022-11-04T01:05:54.997Z,34.60
2022-11-04T01:08:26.703Z,25.50
2022-11-04T01:11:01.953Z,30.10
2022-11-04T01:13:34.320Z,28.50
2022-11-04T01:16:09.359Z,33.00
2022-11-04T01:18:41.965Z,24.70
2022-11-04T01:21:16.194Z,30.60
2022-11-04T01:23:48.517Z,31.00
2022-11-04T01:26:22.775Z,30.60
2022-11-04T01:28:56.584Z,31.90
2022-11-04T01:31:30.861Z,31.80
2022-11-04T01:34:02.621Z,46.90
2022-11-04T01:36:34.433Z,29.40
2022-11-04T01:39:06.695Z,26.10
2022-11-04T01:41:38.839Z,30.90
2022-11-04T01:44:41.475Z,30.20
2022-11-04T01:47:18.451Z,31.60
2022-11-04T01:49:55.174Z,30.40
2022-11-04T01:52:33.688Z,31.30
2022-11-04T01:55:11.352Z,32.60
2022-11-04T01:57:47.710Z,26.50
2022-11-04T02:00:20.356Z,30.20
2022-11-04T02:03:00.271Z,29.60
2022-11-04T02:05:33.504Z,31.90
2022-11-04T02:08:08.119Z,31.90
2022-11-04T02:10:42.917Z,27.90
2022-11-04T02:13:14.820Z,25.80
2022-11-04T02:15:53.682Z,33.40
2022-11-04T02:18:38.116Z,32.20
2022-11-04T02:21:30.099Z,28.50
2022-11-04T02:24:38.306Z,32.90
2022-11-04T02:27:36.746Z,34.10
2022-11-04T02:30:11.949Z,28.20
2022-11-04T02:33:00.683Z,29.70
2022-11-04T02:35:51.278Z,28.20
2022-11-04T02:38:35.197Z,27.50
2022-11-04T02:41:15.546Z,30.60
2022-11-04T02:43:54.262Z,29.00
2022-11-04T02:46:33.867Z,33.90
2022-11-04T02:49:15.739Z,36.20
2022-11-04T02:51:53.787Z,26.80
2022-11-04T02:54:29.480Z,29.20
2022-11-04T02:57:03.325Z,29.30
2022-11-04T02:59:39.353Z,33.20
2022-11-04T03:02:16.967Z,27.60
2022-11-04T03:04:52.739Z,28.00
2022-11-04T03:07:30.258Z,33.00
2022-11-04T03:10:06.711Z,34.00
2022-11-04T03:12:43.941Z,28.50
2022-11-04T03:15:22.008Z,32.20
2022-11-04T03:18:08.700Z,26.20
2022-11-04T03:20:42.383Z,26.60
2022-11-04T03:23:14.862Z,28.50
2022-11-04T03:25:49.089Z,30.00
2022-11-04T03:28:32.256Z,33.90
2022-11-04T03:31:07.535Z,29.10
2022-11-04T03:33:46.293Z,30.90
2022-11-04T03:36:18.705Z,29.60
2022-11-04T03:38:50.900Z,30.60
2022-11-04T03:41:30.882Z,32.10
2022-11-04T03:44:03.020Z,30.40
2022-11-04T03:46:35.016Z,33.90
2022-11-04T03:49:08.089Z,28.20
2022-11-04T03:51:39.762Z,29.00
2022-11-04T03:54:12.179Z,34.00
2022-11-04T03:57:13.000Z,29.80
2022-11-04T04:00:01.946Z,26.40
2022-11-04T04:02:50.802Z,30.00
2022-11-04T04:05:26.905Z,33.60
2022-11-04T04:08:09.204Z,32.90
2022-11-04T04:10:48.896Z,30.80
2022-11-04T04:13:30.453Z,33.30
2022-11-04T04:16:08.870Z,32.00
2022-11-04T04:18:44.945Z,28.30
2022-11-04T04:21:21.047Z,35.90
2022-11-04T04:24:17.332Z,37.70
2022-11-04T04:27:09.149Z,39.70
2022-11-04T04:29:42.077Z,33.10
2022-11-04T04:32:14.957Z,30.80
2022-11-04T04:34:46.969Z,34.00
2022-11-04T04:37:23.072Z,34.70
2022-11-04T04:40:20.891Z,31.00
2022-11-04T04:43:13.247Z,31.00
2022-11-04T04:45:50.987Z,32.70
2022-11-04T04:48:22.734Z,34.70
2022-11-04T04:50:57.843Z,28.90
2022-11-04T04:53:30.252Z,36.30
2022-11-04T04:56:01.956Z,31.80
2022-11-04T04:58:33.627Z,36.10
2022-11-04T05:01:06.141Z,32.90
2022-11-04T05:03:42.430Z,38.30
2022-11-04T05:06:16.756Z,31.20
2022-11-04T05:08:48.464Z,27.60
2022-11-04T05:11:24.403Z,36.80
2022-11-04T05:13:58.924Z,33.50
2022-11-04T05:16:30.622Z,37.80
2022-11-04T05:19:02.377Z,31.70
2022-11-04T05:21:34.528Z,38.90
2022-11-04T05:24:06.677Z,36.10
2022-11-04T05:26:38.317Z,32.80
2022-11-04T05:29:10.369Z,37.10
2022-11-04T05:31:42.229Z,31.60
2022-11-04T05:34:15.117Z,35.50
2022-11-04T05:36:46.720Z,40.90
2022-11-04T05:39:18.522Z,35.40
2022-11-04T05:41:50.129Z,36.60
2022-11-04T05:44:21.755Z,38.90
2022-11-04T05:46:53.864Z,40.90
2022-11-04T05:49:25.580Z,24.80
2022-11-04T05:51:57.205Z,40.10
2022-11-04T05:54:29.397Z,42.60
2022-11-04T05:57:01.057Z,24.00
2022-11-04T05:59:32.689Z,35.40
2022-11-04T06:02:05.131Z,32.90
2022-11-04T06:04:37.377Z,39.00
2022-11-04T06:07:09.884Z,38.80
2022-11-04T06:09:41.781Z,38.00
2022-11-04T06:12:16.325Z,37.30
2022-11-04T06:14:48.082Z,33.90
2022-11-04T06:17:21.734Z,39.70
2022-11-04T06:19:53.557Z,38.60
2022-11-04T06:22:25.345Z,45.70
2022-11-04T06:24:57.205Z,36.20
2022-11-04T06:27:28.786Z,34.80
2022-11-04T06:30:00.475Z,38.60
2022-11-04T06:32:32.181Z,40.90
2022-11-04T06:35:03.889Z,38.60
2022-11-04T06:37:35.807Z,37.50
2022-11-04T06:40:09.582Z,34.50
2022-11-04T06:42:42.992Z,43.50
2022-11-04T06:45:14.946Z,33.90
2022-11-04T06:47:46.603Z,42.40
2022-11-04T06:50:18.720Z,42.10
2022-11-04T06:52:50.425Z,38.70
2022-11-04T06:55:22.114Z,42.30
2022-11-04T06:57:53.822Z,49.20
2022-11-04T07:00:25.705Z,38.90
2022-11-04T07:02:57.542Z,42.00
2022-11-04T07:05:29.926Z,41.90
2022-11-04T07:08:02.450Z,41.30
2022-11-04T07:10:34.726Z,36.40
2022-11-04T07:13:06.598Z,34.30
2022-11-04T07:15:38.757Z,39.80
2022-11-04T07:18:10.956Z,38.30
2022-11-04T07:20:43.081Z,43.20
2022-11-04T07:23:14.836Z,35.00
2022-11-04T07:25:46.817Z,43.00
2022-11-04T07:28:18.663Z,37.90
2022-11-04T07:30:50.376Z,41.40
2022-11-04T07:33:22.927Z,33.60
2022-11-04T07:35:57.962Z,35.70
2022-11-04T07:38:30.264Z,36.10
2022-11-04T07:41:02.548Z,39.10
2022-11-04T07:43:34.613Z,34.50
2022-11-04T07:46:09.971Z,40.10
2022-11-04T07:48:43.220Z,48.60
2022-11-04T07:51:17.420Z,42.20
2022-11-04T07:53:49.464Z,38.30
2022-11-04T07:56:21.434Z,35.40
2022-11-04T07:58:53.819Z,36.60
2022-11-04T08:01:26.188Z,37.80
2022-11-04T08:03:57.867Z,56.80
2022-11-04T08:06:31.955Z,52.50
2022-11-04T08:09:05.076Z,44.40
2022-11-04T08:11:36.801Z,54.90
2022-11-04T08:14:09.476Z,40.60
2022-11-04T08:16:41.135Z,40.30
2022-11-04T08:19:12.846Z,40.20
2022-11-04T08:21:45.111Z,40.00
2022-11-04T08:24:17.321Z,44.30
2022-11-04T08:26:49.597Z,38.90
2022-11-04T08:29:21.590Z,38.40
2022-11-04T08:31:53.414Z,40.40
2022-11-04T08:34:25.693Z,42.00
2022-11-04T08:36:58.831Z,40.60
2022-11-04T08:39:31.009Z,40.90
2022-11-04T08:42:03.066Z,48.50
2022-11-04T08:44:35.321Z,46.60
2022-11-04T08:47:08.083Z,39.80
2022-11-04T08:52:14.075Z,47.10
2022-11-04T08:54:45.889Z,35.20
2022-11-04T08:57:26.121Z,43.60
2022-11-04T09:00:01.839Z,40.80
2022-11-04T09:02:33.592Z,40.50
2022-11-04T09:05:05.885Z,51.50
2022-11-04T09:07:38.798Z,39.00
2022-11-04T09:10:12.253Z,37.40
2022-11-04T09:12:44.725Z,37.10
2022-11-04T09:15:16.700Z,41.20
2022-11-04T09:17:48.374Z,43.80
2022-11-04T09:20:20.275Z,40.60
2022-11-04T09:22:53.179Z,37.40
2022-11-04T09:25:35.758Z,38.40
2022-11-04T09:28:10.479Z,34.00
2022-11-04T09:30:42.882Z,45.70
2022-11-04T09:33:14.763Z,36.30
2022-11-04T09:35:54.972Z,35.50
2022-11-04T09:38:27.184Z,36.40
2022-11-04T09:41:00.670Z,38.30
2022-11-04T09:43:42.860Z,35.80
2022-11-04T09:46:15.975Z,38.30
2022-11-04T09:48:51.795Z,41.00
2022-11-04T09:51:52.689Z,45.90
2022-11-04T09:54:24.144Z,42.60
2022-11-04T09:56:59.087Z,39.10
2022-11-04T09:59:34.181Z,34.90
2022-11-04T10:02:36.222Z,37.00
2022-11-04T10:05:20.920Z,35.30
2022-11-04T10:08:21.851Z,35.10
2022-11-04T10:11:00.854Z,32.90
2022-11-04T10:13:47.256Z,41.60
2022-11-04T10:16:35.688Z,42.00
2022-11-04T10:19:31.553Z,39.80
2022-11-04T10:22:11.667Z,34.30
2022-11-04T10:24:51.531Z,33.80
2022-11-04T10:27:28.048Z,42.40
2022-11-04T10:30:03.195Z,36.10
2022-11-04T10:32:40.255Z,38.00
2022-11-04T10:35:23.043Z,30.70
2022-11-04T10:37:56.708Z,36.60
2022-11-04T10:40:37.142Z,34.10
2022-11-04T10:43:15.774Z,30.00
2022-11-04T10:46:07.034Z,36.90
2022-11-04T10:48:44.933Z,29.60
2022-11-04T10:51:22.211Z,33.40
2022-11-04T10:53:57.790Z,33.70
2022-11-04T10:56:39.690Z,38.30
2022-11-04T10:59:23.644Z,37.30
2022-11-04T11:01:57.441Z,33.90
2022-11-04T11:04:33.294Z,36.80
2022-11-04T11:07:07.645Z,42.20
2022-11-04T11:09:54.353Z,37.00
2022-11-04T11:12:50.592Z,37.10
2022-11-04T11:15:32.504Z,36.40
2022-11-04T11:18:16.251Z,28.60
2022-11-04T11:21:05.063Z,29.60
2022-11-04T11:23:42.861Z,35.50
2022-11-04T11:26:17.758Z,30.20
2022-11-04T11:28:59.247Z,35.30
2022-11-04T11:31:39.261Z,38.10
2022-11-04T11:34:20.349Z,34.70
2022-11-04T11:36:52.591Z,34.70
2022-11-04T11:39:28.143Z,30.30
2022-11-04T11:42:03.264Z,32.20
2022-11-04T11:44:38.886Z,32.60
2022-11-04T11:47:21.925Z,38.70
2022-11-04T11:52:39.755Z,31.10
2022-11-04T11:55:17.718Z,37.50
2022-11-04T12:01:06.621Z,39.10
2022-11-04T12:09:48.685Z,37.30
2022-11-04T12:12:33.879Z,38.40
2022-11-04T12:15:19.001Z,39.70
2022-11-04T12:18:03.586Z,36.10
2022-11-04T12:20:53.087Z,37.50
2022-11-04T12:23:30.397Z,36.50
2022-11-04T12:26:14.250Z,35.90
2022-11-04T12:28:55.502Z,38.40
2022-11-04T12:31:35.374Z,32.70
2022-11-04T12:34:19.323Z,33.60
2022-11-04T12:37:05.361Z,35.30
2022-11-04T12:39:59.881Z,38.10
2022-11-04T12:42:43.649Z,39.00
2022-11-04T12:45:26.065Z,40.70
2022-11-04T12:48:05.291Z,41.40
2022-11-04T12:50:58.909Z,35.00
2022-11-04T12:53:53.154Z,41.70
2022-11-04T12:56:31.074Z,34.20
2022-11-04T12:59:34.563Z,40.30
2022-11-04T13:04:55.313Z,38.00
2022-11-04T13:07:35.200Z,44.90
2022-11-04T13:10:17.518Z,39.50
2022-11-04T13:12:54.169Z,41.80
2022-11-04T13:15:29.900Z,38.60
2022-11-04T13:18:06.468Z,37.70
2022-11-04T13:20:45.594Z,38.90
2022-11-04T13:23:23.785Z,38.80
2022-11-04T13:25:58.516Z,42.30
2022-11-04T13:28:31.384Z,41.30
2022-11-04T13:33:50.406Z,44.30
2022-11-04T13:36:38.113Z,39.30
2022-11-04T13:39:18.692Z,46.60
2022-11-04T13:42:15.627Z,42.60
2022-11-04T13:44:49.490Z,47.30
2022-11-04T13:47:25.720Z,42.70
2022-11-04T13:49:58.397Z,41.10
2022-11-04T13:52:32.781Z,48.80
2022-11-04T13:55:08.537Z,44.70
2022-11-04T13:57:53.799Z,42.50
2022-11-04T14:00:28.130Z,43.50
2022-11-04T14:03:01.142Z,47.70
2022-11-04T14:06:05.453Z,40.10
2022-11-04T14:11:14.317Z,50.30
2022-11-04T14:14:04.285Z,51.50
2022-11-04T14:16:47.305Z,51.90
2022-11-04T14:22:15.422Z,51.00
2022-11-04T14:24:55.264Z,47.60
2022-11-04T14:27:32.601Z,46.30
2022-11-04T14:30:04.910Z,51.90
2022-11-04T14:32:41.800Z,48.30
2022-11-04T14:35:20.948Z,53.40
2022-11-04T14:37:56.436Z,60.40
2022-11-04T14:40:46.223Z,55.20
2022-11-04T14:43:32.152Z,55.30
2022-11-04T14:46:04.618Z,54.00
2022-11-04T14:48:37.458Z,57.10
2022-11-04T14:53:40.398Z,55.30
2022-11-04T14:56:23.606Z,55.00
2022-11-04T14:58:59.593Z,47.30
2022-11-04T15:01:35.183Z,61.30
2022-11-04T15:04:26.754Z,59.90
2022-11-04T15:06:59.766Z,55.10
2022-11-04T15:09:35.175Z,59.60
2022-11-04T15:12:31.849Z,51.30
2022-11-04T15:15:04.962Z,55.80
2022-11-04T15:17:36.760Z,55.50
2022-11-04T15:22:53.329Z,58.40
2022-11-04T15:25:25.404Z,49.90
2022-11-04T15:27:57.727Z,53.20
2022-11-04T15:30:32.216Z,51.30
2022-11-04T15:33:05.131Z,54.30
2022-11-04T15:35:43.509Z,55.50
2022-11-04T15:38:16.462Z,54.00
2022-11-04T15:40:49.245Z,48.50
2022-11-04T15:45:56.241Z,49.70
2022-11-04T15:48:33.892Z,54.10
2022-11-04T15:51:15.591Z,47.40
2022-11-04T15:53:56.684Z,51.70
2022-11-04T15:56:30.388Z,54.50
2022-11-04T15:59:02.949Z,48.10
2022-11-04T16:01:35.270Z,44.90
2022-11-04T16:06:41.658Z,51.80
2022-11-04T16:09:27.537Z,55.80
2022-11-04T16:12:14.311Z,47.60
2022-11-04T16:14:54.950Z,44.60
2022-11-04T16:17:30.632Z,46.80
2022-11-04T16:20:06.684Z,50.50
2022-11-04T16:22:40.936Z,52.70
2022-11-04T16:25:23.997Z,55.00
2022-11-04T16:30:26.821Z,50.90
2022-11-04T16:33:11.526Z,51.10
2022-11-04T16:35:43.556Z,56.30
2022-11-04T16:38:15.255Z,53.50
2022-11-04T16:40:48.966Z,51.50
2022-11-04T16:43:23.570Z,55.20
2022-11-04T16:45:55.355Z,54.60
2022-11-04T16:48:27.952Z,33.80
2022-11-04T16:50:59.680Z,60.30
2022-11-04T16:53:31.512Z,50.70
2022-11-04T16:56:03.791Z,58.70
2022-11-04T16:58:35.680Z,53.40
2022-11-04T17:01:07.667Z,47.40
2022-11-04T17:03:39.387Z,51.30
2022-11-04T17:06:12.340Z,37.90
2022-11-04T17:08:44.128Z,58.50
2022-11-04T17:11:16.054Z,47.60
2022-11-04T17:13:47.701Z,51.60
2022-11-04T17:16:19.836Z,48.30
2022-11-04T17:18:51.645Z,50.00
2022-11-04T17:21:23.445Z,50.30
2022-11-04T17:23:58.672Z,55.40
2022-11-04T17:26:31.633Z,51.30
2022-11-04T17:29:03.939Z,56.70
2022-11-04T17:31:35.985Z,52.10
2022-11-04T17:34:08.325Z,54.80
2022-11-04T17:36:40.311Z,58.10
2022-11-04T17:39:11.975Z,43.60
2022-11-04T17:42:01.609Z,41.60
2022-11-04T17:44:33.315Z,53.70
2022-11-04T17:47:05.184Z,57.30
2022-11-04T17:49:39.026Z,55.80
2022-11-04T17:52:11.019Z,60.20
2022-11-04T17:54:42.861Z,59.10
2022-11-04T17:57:17.127Z,38.40
2022-11-04T17:59:49.227Z,61.40
2022-11-04T18:02:21.127Z,60.70
2022-11-04T18:04:53.088Z,72.60
2022-11-04T18:07:24.881Z,72.50
2022-11-04T18:09:56.952Z,60.60
2022-11-04T18:12:41.368Z,64.90
2022-11-04T18:15:17.081Z,59.20
2022-11-04T18:17:50.169Z,67.50
2022-11-04T18:20:22.053Z,65.10
2022-11-04T18:22:54.036Z,57.50
2022-11-04T18:25:26.586Z,60.00
2022-11-04T18:28:00.359Z,61.40
2022-11-04T18:30:32.366Z,67.50
2022-11-04T18:33:04.117Z,59.50
2022-11-04T18:35:36.222Z,60.60
2022-11-04T18:38:08.232Z,69.30
2022-11-04T18:40:40.218Z,63.50
2022-11-04T18:43:12.258Z,60.40
2022-11-04T18:45:44.155Z,62.00
2022-11-04T18:48:16.403Z,63.50
2022-11-04T18:50:48.329Z,47.50
2022-11-04T18:53:25.870Z,53.90
2022-11-04T18:56:04.505Z,69.50
2022-11-04T18:58:38.185Z,63.30
2022-11-04T19:01:12.739Z,78.00
2022-11-04T19:03:45.270Z,76.00
2022-11-04T19:06:19.926Z,76.90
2022-11-04T19:08:53.079Z,82.50
2022-11-04T19:11:26.924Z,109.30
2022-11-04T19:14:05.097Z,116.80
2022-11-04T19:16:41.317Z,106.20
2022-11-04T19:19:16.574Z,148.10
2022-11-04T19:21:49.718Z,222.80
2022-11-04T19:24:21.605Z,164.30
2022-11-04T19:26:53.476Z,155.50
2022-11-04T19:29:26.023Z,114.00
2022-11-04T19:31:58.129Z,106.00
2022-11-04T19:34:30.079Z,96.80
2022-11-04T19:37:07.444Z,97.00
2022-11-04T19:39:39.592Z,90.80
2022-11-04T19:42:30.559Z,91.30
2022-11-04T19:45:02.661Z,74.30
2022-11-04T19:47:34.526Z,91.10
2022-11-04T19:50:07.597Z,49.20
2022-11-04T19:52:39.860Z,105.80
2022-11-04T19:55:12.161Z,74.70
2022-11-04T19:57:44.009Z,80.40
2022-11-04T20:00:16.420Z,86.50
2022-11-04T20:02:48.973Z,86.90
2022-11-04T20:05:20.760Z,77.80
2022-11-04T20:07:54.599Z,76.10
2022-11-04T20:10:26.971Z,74.00
2022-11-04T20:13:16.342Z,75.00
2022-11-04T20:15:48.828Z,69.70
2022-11-04T20:18:22.013Z,70.80
2022-11-04T20:20:54.087Z,62.40
2022-11-04T20:23:25.925Z,66.60
2022-11-04T20:25:57.678Z,72.20
2022-11-04T20:28:29.601Z,42.80
2022-11-04T20:31:01.466Z,71.10
2022-11-04T20:33:33.373Z,75.60
2022-11-04T20:36:07.445Z,67.50
2022-11-04T20:38:39.852Z,73.20
2022-11-04T20:41:15.543Z,71.00
2022-11-04T20:43:48.503Z,65.90
2022-11-04T20:46:23.142Z,70.30
2022-11-04T20:48:55.298Z,70.30
2022-11-04T20:51:29.631Z,66.60
2022-11-04T20:54:03.115Z,72.30
2022-11-04T20:56:36.889Z,76.10
2022-11-04T20:59:10.489Z,65.80
2022-11-04T21:01:44.729Z,66.10
2022-11-04T21:04:19.350Z,49.70
2022-11-04T21:06:52.814Z,67.70
2022-11-04T21:09:24.732Z,69.40
2022-11-04T21:11:57.930Z,67.00
2022-11-04T21:14:31.855Z,83.50
2022-11-04T21:17:04.370Z,71.10
2022-11-04T21:19:36.318Z,79.60
2022-11-04T21:22:08.209Z,85.00
2022-11-04T21:24:40.966Z,80.00
2022-11-04T21:29:45.274Z,80.60
2022-11-04T21:32:17.304Z,71.50
2022-11-04T21:34:49.118Z,80.00
2022-11-04T21:37:20.815Z,74.50
2022-11-04T21:39:53.053Z,87.10
2022-11-04T21:42:25.045Z,89.20
2022-11-04T21:44:56.812Z,76.50
2022-11-04T21:47:28.845Z,59.80
2022-11-04T21:50:00.586Z,86.00
2022-11-04T21:52:32.564Z,76.90
2022-11-04T21:55:04.678Z,82.40
2022-11-04T21:57:38.620Z,90.30
2022-11-04T22:00:14.364Z,80.90
2022-11-04T22:02:47.878Z,85.70
2022-11-04T22:05:21.013Z,80.50
2022-11-04T22:08:10.301Z,78.50
2022-11-04T22:10:42.063Z,87.80
2022-11-04T22:13:14.064Z,83.70
2022-11-04T22:16:01.678Z,80.90
2022-11-04T22:18:34.578Z,81.10
2022-11-04T22:23:38.933Z,85.80
2022-11-04T22:26:14.500Z,83.60
2022-11-04T22:28:47.488Z,85.60
2022-11-04T22:31:21.249Z,77.90
2022-11-04T22:33:53.473Z,67.90
2022-11-04T22:36:25.944Z,70.70
2022-11-04T22:38:58.074Z,84.00
2022-11-04T22:41:32.225Z,79.80
2022-11-04T22:44:04.293Z,79.20
2022-11-04T22:46:36.177Z,87.80
2022-11-04T22:49:07.930Z,74.90
2022-11-04T22:51:39.585Z,79.60
2022-11-04T22:54:13.208Z,88.30
2022-11-04T22:56:45.057Z,80.60
2022-11-04T22:59:16.900Z,86.00
2022-11-04T23:01:48.695Z,77.50
2022-11-04T23:04:20.644Z,76.50
2022-11-04T23:06:52.346Z,74.40
2022-11-04T23:09:24.125Z,81.10
2022-11-04T23:12:13.306Z,73.80
2022-11-04T23:15:02.606Z,70.60
2022-11-04T23:18:03.409Z,73.00
2022-11-04T23:20:35.049Z,70.60
2022-11-04T23:23:24.732Z,69.20
2022-11-04T23:25:56.442Z,72.20
2022-11-04T23:28:45.684Z,67.80
2022-11-04T23:31:17.386Z,61.20
2022-11-04T23:34:05.735Z,67.90
2022-11-04T23:36:55.115Z,55.40
2022-11-04T23:39:26.935Z,61.80
2022-11-04T23:42:16.399Z,62.10
2022-11-04T23:45:08.585Z,61.60
2022-11-04T23:48:00.691Z,62.50
2022-11-04T23:50:52.329Z,53.80
2022-11-04T23:53:41.672Z,65.00
2022-11-04T23:56:42.841Z,69.40
2022-11-04T23:59:34.110Z,63.80
